OIMC  Sarakhs  Airport

Sarakhs, Iran

Add Bookmark
ICAO OIMC
IATA CKT
Type Airport
Status Operational
Latitude
36° 30' 4" N
36.501202
Longitude
61° 3' 53" E
61.064899
Local (DST + 5) UTC (GMT + 4)
Apr 18, 2015 04:07 Apr 18, 2015 11:37
Sunrise-Sunset Local UTC
Begin Civil Twilight 05:20 00:50
Sunrise 05:46 01:16
Sunset 07:03 14:33
End Civil Twilight 07:30 15:00
VFR
VFR
MVFR
MVFR
IFR
VFR
LIFR
VFR
Unknown
Unavailable

Current Weather

METAR Observed VFR
OIMC 181100Z 12006KT 9999 SCT040 SCT100 BKN190 21/08 Q1015 Sat, Apr 18, 2015 @ 11:00 UTC
(37 Minutes ago)
Visual Flight Rules
Wind Visibility Clouds Conditions
120° at 6 knots (11 kph) 10 km or more
  • Scattered at 4,000 ft AGL
  • Scattered at 10,000 ft AGL
  • Broken at 19,000 ft AGL
  • No significant weather
Temperatures Readings Precipitation
Current Temp
21°C
70°F
Dewpoint
8°C
46°F
Humidity 43%
Altimeter 29.97" Hg
Sea Level Pressure 1,015 mb
Field Elevation
288 m
945 ft
None Recorded
-
-

CheckWX.com is intended as a tool to help pilots better visualize weather data. It is not intended as a substitute for an official weather briefing obtained from a Flight Service Station. CheckWX.com does not meet the FAA requirements for an official pre-flight weather briefing. Therefore, it's important that pilots still call and obtain an official FSS pre-flight weather briefing.

© 2007-2015 CheckWX.com
11:37:10 UTC